Time;durP1;ratioP1;P1;durP2;ratioP2;P2;SDS_P1;SDS_P2;PMS_P1;PMS_P2;Temp;Humidity;BMP_temperature;BMP_pressure;BME280_temperature;BME280_humidity;BME280_pressure;Samples;Min_cycle;Max_cycle;Signal;HPM_P1;HPM_P2
2022/10/18 00:01:12;;;;;;;12.13;6.00;;;;;;;17.55;79.54;101466.22;4197489;28;20094;-64
2022/10/18 00:03:15;;;;;;;14.18;6.00;;;;;;;17.52;79.49;101464.50;4187444;28;20036;-64
2022/10/18 00:05:18;;;;;;;9.90;5.68;;;;;;;17.53;79.23;101475.88;4191882;28;20411;-64
2022/10/18 00:07:21;;;;;;;11.90;6.32;;;;;;;17.51;79.74;101467.97;4187219;28;20044;-64
2022/10/18 00:09:23;;;;;;;11.02;5.57;;;;;;;17.48;79.82;101470.63;4215371;28;20043;-65
2022/10/18 00:11:26;;;;;;;10.88;5.88;;;;;;;17.49;79.92;101468.84;4199851;28;20045;-64
2022/10/18 00:13:29;;;;;;;16.13;6.30;;;;;;;17.58;79.14;101468.84;4191016;28;20045;-64
2022/10/18 00:15:33;;;;;;;10.73;6.40;;;;;;;17.52;79.30;101460.97;4188585;28;20067;-64
2022/10/18 00:17:37;;;;;;;11.38;6.03;;;;;;;17.47;79.78;101467.97;4188076;28;20076;-64
2022/10/18 00:19:40;;;;;;;12.90;7.35;;;;;;;17.48;80.06;101465.34;4190739;28;20071;-64
2022/10/18 00:21:43;;;;;;;13.18;6.32;;;;;;;17.53;79.36;101460.09;4188708;28;20406;-64
2022/10/18 00:23:52;;;;;;;11.10;6.45;;;;;;;17.51;79.76;101465.34;4184463;28;20037;-64
2022/10/18 00:25:59;;;;;;;;;;;;;;;17.40;80.08;101465.31;4183481;28;20418;-64
2022/10/18 00:28:01;;;;;;;13.10;6.28;;;;;;;17.41;80.43;101464.44;4187069;28;19925;-64
2022/10/18 00:30:06;;;;;;;10.20;5.80;;;;;;;17.45;80.33;101465.34;4190898;28;20037;-65
2022/10/18 00:32:10;;;;;;;11.85;5.22;;;;;;;17.45;80.02;101455.69;4185126;28;20047;-64
2022/10/18 00:34:15;;;;;;;11.18;5.18;;;;;;;17.51;80.27;101459.19;4189436;28;20410;-65
2022/10/18 00:36:18;;;;;;;;;;;;;;;17.38;80.41;101461.81;4190660;28;20036;-65
2022/10/18 00:38:20;;;;;;;12.65;5.50;;;;;;;17.44;80.03;101469.72;4171302;28;19921;-64
2022/10/18 00:40:23;;;;;;;10.63;6.20;;;;;;;17.49;79.92;101468.84;4189151;28;20048;-64
2022/10/18 00:42:30;;;;;;;8.48;4.32;;;;;;;17.51;79.92;101469.72;4187359;28;20060;-64
2022/10/18 00:45:03;;;;;;;8.07;4.80;;;;;;;17.47;79.90;101474.09;4194070;28;20029;-64
2022/10/18 00:47:11;;;;;;;7.22;4.47;;;;;;;17.43;80.05;101470.59;4188067;28;20579;-64
2022/10/18 00:49:18;;;;;;;9.75;4.63;;;;;;;17.51;79.95;101469.72;4192162;28;20494;-64
2022/10/18 00:51:23;;;;;;;8.35;4.55;;;;;;;17.56;79.75;101470.63;4182882;28;20410;-65
2022/10/18 00:53:26;;;;;;;;;;;;;;;17.49;79.47;101466.22;4183292;28;20592;-64
2022/10/18 00:55:31;;;;;;;7.80;5.38;;;;;;;17.56;79.83;101465.34;4194759;28;19985;-64
2022/10/18 00:57:35;;;;;;;19.77;6.82;;;;;;;17.62;79.13;101468.88;4191612;28;20159;-64
2022/10/18 00:59:38;;;;;;;12.13;5.00;;;;;;;17.64;79.25;101463.63;4191463;28;20077;-64
2022/10/18 01:01:41;;;;;;;11.35;5.03;;;;;;;17.68;79.45;101465.34;4190099;28;20041;-65
2022/10/18 01:03:45;;;;;;;8.30;4.75;;;;;;;17.67;79.01;101458.38;4185863;28;20106;-64
2022/10/18 01:05:48;;;;;;;13.63;5.07;;;;;;;17.67;79.13;101458.38;4186134;28;20041;-65
2022/10/18 01:08:14;;;;;;;7.78;4.95;;;;;;;17.70;78.98;101458.38;4186470;28;20041;-65
2022/10/18 01:10:26;;;;;;;7.53;4.93;;;;;;;17.68;79.00;101452.22;4193285;28;20406;-64
2022/10/18 01:12:39;;;;;;;7.97;5.05;;;;;;;17.70;78.95;101461.00;4187441;28;20506;-64
2022/10/18 01:14:47;;;;;;;8.52;3.40;;;;;;;17.68;78.79;101457.47;4191702;28;20126;-64
2022/10/18 01:16:57;;;;;;;7.63;4.20;;;;;;;17.63;79.13;101460.09;4186214;28;20041;-65
2022/10/18 01:19:11;;;;;;;6.95;4.22;;;;;;;17.64;79.15;101461.00;4193267;28;20432;-65
2022/10/18 01:21:24;;;;;;;14.45;4.95;;;;;;;17.69;78.43;101461.00;4173177;28;20069;-65
2022/10/18 01:23:39;;;;;;;8.75;4.88;;;;;;;17.76;77.71;101453.09;4188183;28;20067;-65
2022/10/18 01:25:54;;;;;;;9.48;4.78;;;;;;;17.68;78.08;101461.84;4188951;28;20048;-63
2022/10/18 01:28:07;;;;;;;6.75;4.05;;;;;;;17.71;78.29;101459.22;4189219;28;20037;-65
2022/10/18 01:30:42;;;;;;;8.30;4.45;;;;;;;17.76;77.45;101460.13;4183588;28;20048;-63
2022/10/18 01:32:49;;;;;;;8.73;4.35;;;;;;;17.76;77.50;101457.50;4188717;28;20402;-63
2022/10/18 01:34:57;;;;;;;14.95;4.15;;;;;;;17.79;77.42;101455.72;4189335;28;20032;-63
2022/10/18 01:37:02;;;;;;;8.50;3.80;;;;;;;17.77;77.21;101457.50;4189070;28;20060;-64
2022/10/18 01:39:08;;;;;;;9.68;3.85;;;;;;;17.74;76.96;101454.88;4193094;28;20506;-63
2022/10/18 01:41:14;;;;;;;7.43;4.20;;;;;;;17.75;76.85;101453.97;4194797;28;20063;-63
2022/10/18 01:43:20;;;;;;;9.27;3.90;;;;;;;17.77;76.99;101460.13;4188522;28;20047;-63
2022/10/18 01:45:25;;;;;;;12.68;5.00;;;;;;;17.80;77.29;101454.00;4195586;28;20036;-63
2022/10/18 01:47:29;;;;;;;9.52;4.20;;;;;;;17.79;76.79;101449.59;4195759;28;20040;-64
2022/10/18 01:49:33;;;;;;;;;;;;;;;17.67;77.45;101445.22;4188748;28;20060;-63
2022/10/18 01:51:36;;;;;;;11.20;5.10;;;;;;;17.76;77.30;101446.97;4193647;28;19920;-63
2022/10/18 01:53:38;;;;;;;6.30;4.38;;;;;;;17.74;77.50;101446.06;4193495;28;20036;-64
2022/10/18 01:55:45;;;;;;;9.40;3.63;;;;;;;17.71;77.81;101448.72;4192819;28;20045;-64
2022/10/18 01:57:59;;;;;;;8.23;4.65;;;;;;;17.70;77.75;101445.22;4189389;28;20049;-63
2022/10/18 02:00:06;;;;;;;10.45;3.88;;;;;;;17.68;77.68;101441.69;4188333;28;20036;-63
2022/10/18 02:02:26;;;;;;;10.25;4.13;;;;;;;17.69;77.69;101438.19;4188488;28;20041;-63
2022/10/18 02:04:39;;;;;;;7.43;3.78;;;;;;;17.68;77.68;101436.44;4193982;28;20568;-64
2022/10/18 02:06:45;;;;;;;7.53;4.28;;;;;;;17.71;77.06;101435.56;4188174;28;20434;-63
2022/10/18 02:08:52;;;;;;;10.63;4.32;;;;;;;17.72;77.35;101437.31;4190847;28;20078;-63
2022/10/18 02:11:00;;;;;;;8.63;4.47;;;;;;;17.74;77.39;101432.94;4190414;28;20498;-63
2022/10/18 02:13:03;;;;;;;9.88;3.97;;;;;;;17.65;77.46;101430.31;4192069;28;20517;-64
2022/10/18 02:15:08;;;;;;;10.05;5.03;;;;;;;17.64;77.65;101434.69;4187212;28;20028;-64
2022/10/18 02:17:12;;;;;;;7.70;3.75;;;;;;;17.60;77.49;101425.91;4186777;28;20099;-63
2022/10/18 02:19:20;;;;;;;7.22;3.60;;;;;;;17.60;76.97;101428.53;4190095;28;20037;-63
2022/10/18 02:21:25;;;;;;;8.68;3.40;;;;;;;17.64;77.08;101424.19;4186712;28;20073;-65
2022/10/18 02:23:29;;;;;;;8.50;4.00;;;;;;;17.56;77.30;101428.53;4184644;28;20528;-64
2022/10/18 02:25:34;;;;;;;10.07;4.10;;;;;;;17.59;77.49;101426.78;4175555;28;20094;-63
2022/10/18 02:27:37;;;;;;;6.10;3.60;;;;;;;17.57;77.62;101428.53;4194348;28;20059;-63
2022/10/18 02:29:41;;;;;;;7.03;4.35;;;;;;;17.58;77.88;101429.41;4187505;28;20043;-63
2022/10/18 02:31:47;;;;;;;5.82;3.65;;;;;;;17.49;77.68;101434.66;4193762;28;20036;-63
2022/10/18 02:33:53;;;;;;;8.23;4.88;;;;;;;17.53;77.77;101428.53;4182737;28;20518;-64
2022/10/18 02:36:02;;;;;;;7.30;3.97;;;;;;;17.57;77.51;101432.94;4193763;28;20036;-63
2022/10/18 02:38:09;;;;;;;16.00;4.40;;;;;;;17.59;77.31;101432.03;4194098;28;20456;-63
2022/10/18 02:40:12;;;;;;;6.63;3.50;;;;;;;17.57;77.03;101432.94;4189151;28;20068;-63
2022/10/18 02:42:15;;;;;;;5.57;3.42;;;;;;;17.51;77.42;101425.91;4191090;28;20433;-64
2022/10/18 02:44:18;;;;;;;11.00;4.43;;;;;;;17.54;76.94;101422.44;4175545;28;20307;-64
2022/10/18 02:46:21;;;;;;;8.23;3.90;;;;;;;17.51;76.80;101423.28;4183057;28;20410;-63
2022/10/18 02:48:24;;;;;;;12.77;4.22;;;;;;;17.47;77.45;101425.91;4188162;28;20058;-63
2022/10/18 02:50:27;;;;;;;13.90;4.63;;;;;;;17.41;76.65;101430.28;4170380;28;20037;-63
2022/10/18 02:52:29;;;;;;;8.35;4.25;;;;;;;17.34;77.04;101431.13;4176647;28;20048;-63
2022/10/18 02:54:34;;;;;;;9.27;4.15;;;;;;;17.31;76.97;101438.16;4191554;28;20094;-63
2022/10/18 02:56:37;;;;;;;4.55;3.60;;;;;;;17.29;76.94;101440.78;4192235;28;20102;-63
2022/10/18 02:58:39;;;;;;;7.70;3.92;;;;;;;17.30;77.23;101439.88;4186735;28;20060;-63
2022/10/18 03:00:42;;;;;;;10.25;3.70;;;;;;;17.35;76.71;101443.41;4169284;28;20049;-63
2022/10/18 03:02:45;;;;;;;8.07;4.22;;;;;;;17.36;76.94;101450.44;4190510;28;20045;-63
2022/10/18 03:04:48;;;;;;;8.80;4.35;;;;;;;17.38;76.88;101438.16;4195872;28;20410;-63
2022/10/18 03:06:51;;;;;;;11.38;4.38;;;;;;;17.35;76.67;101440.78;4194385;28;20127;-63
2022/10/18 03:08:53;;;;;;;8.23;4.10;;;;;;;17.41;76.63;101438.16;4192375;28;20040;-63
2022/10/18 03:10:57;;;;;;;9.80;3.92;;;;;;;17.47;76.71;101425.91;4186991;28;20037;-63
2022/10/18 03:13:00;;;;;;;12.60;4.25;;;;;;;17.48;77.03;101428.53;4185291;28;20033;-63
2022/10/18 03:15:04;;;;;;;11.25;4.60;;;;;;;17.57;76.62;101423.28;4165231;28;20045;-63
2022/10/18 03:17:07;;;;;;;7.97;4.43;;;;;;;17.53;76.56;101436.44;4194859;28;20089;-63
2022/10/18 03:19:09;;;;;;;11.60;4.72;;;;;;;17.50;76.67;101425.91;4185531;28;20072;-64
2022/10/18 03:21:12;;;;;;;11.32;4.95;;;;;;;17.48;76.73;101430.28;4183212;28;20153;-64
2022/10/18 03:23:15;;;;;;;10.32;4.40;;;;;;;17.50;76.35;101431.19;4190973;28;20095;-64
2022/10/18 03:25:19;;;;;;;5.75;3.83;;;;;;;17.46;76.48;101430.28;4183288;28;20507;-63
2022/10/18 03:27:23;;;;;;;8.50;4.63;;;;;;;17.39;76.20;101437.28;4188897;28;20040;-64
2022/10/18 03:29:26;;;;;;;10.60;4.70;;;;;;;17.30;76.66;101439.88;4192598;28;20037;-64
2022/10/18 03:31:29;;;;;;;8.45;3.83;;;;;;;17.26;76.57;101448.66;4186062;28;20516;-64
2022/10/18 03:33:37;;;;;;;12.80;4.22;;;;;;;17.23;77.02;101451.25;4181487;28;20041;-64
2022/10/18 03:35:40;;;;;;;10.85;3.78;;;;;;;17.28;76.89;101446.91;4192341;28;20037;-63
2022/10/18 03:37:42;;;;;;;10.38;4.07;;;;;;;17.31;76.45;101452.16;4191528;28;20120;-64
2022/10/18 03:39:45;;;;;;;11.82;4.72;;;;;;;17.26;76.56;101454.78;4185311;28;20063;-64
2022/10/18 03:41:48;;;;;;;12.18;4.65;;;;;;;17.25;76.55;101462.66;4188231;28;20076;-64
2022/10/18 03:43:52;;;;;;;12.10;4.93;;;;;;;17.23;76.52;101459.13;4186181;28;20041;-64
2022/10/18 03:45:55;;;;;;;11.65;4.53;;;;;;;17.20;76.70;101461.75;4194211;28;20083;-64
2022/10/18 03:47:58;;;;;;;17.40;5.53;;;;;;;17.27;76.32;101466.16;4192056;28;20044;-64
2022/10/18 03:50:01;;;;;;;8.07;4.55;;;;;;;17.33;76.24;101471.44;4181489;28;20033;-64
2022/10/18 03:52:03;;;;;;;10.68;4.38;;;;;;;17.37;75.84;101473.19;4188386;28;20040;-64
2022/10/18 03:54:06;;;;;;;8.40;4.80;;;;;;;17.38;76.23;101490.72;4186473;28;20486;-64
2022/10/18 03:56:09;;;;;;;11.93;5.40;;;;;;;17.56;74.77;101489.88;4186084;28;20115;-64
2022/10/18 03:58:12;;;;;;;11.70;4.55;;;;;;;17.44;75.21;101495.13;4169607;28;20095;-64
2022/10/18 04:00:16;;;;;;;9.98;4.65;;;;;;;17.31;75.96;101493.34;4189538;28;20106;-64
2022/10/18 04:02:19;;;;;;;13.07;4.40;;;;;;;17.30;76.19;101488.97;4180243;28;20564;-64
2022/10/18 04:04:22;;;;;;;9.77;5.07;;;;;;;17.23;76.18;101499.47;4182608;28;20039;-64
2022/10/18 04:06:24;;;;;;;18.42;6.13;;;;;;;17.41;75.38;101505.66;4186385;28;20040;-64
2022/10/18 04:08:27;;;;;;;15.38;5.40;;;;;;;17.25;75.87;101505.59;4182155;28;20037;-64
2022/10/18 04:10:30;;;;;;;9.77;5.07;;;;;;;17.23;76.09;101498.56;4190395;28;20032;-65
2022/10/18 04:12:33;;;;;;;10.75;5.07;;;;;;;17.31;75.27;101511.75;4183829;28;20080;-63
2022/10/18 04:14:36;;;;;;;9.98;4.53;;;;;;;17.26;76.15;101511.75;4183674;28;20132;-64
2022/10/18 04:16:40;;;;;;;8.55;4.93;;;;;;;17.18;76.23;101516.06;4193842;28;20490;-64
2022/10/18 04:18:43;;;;;;;9.85;4.78;;;;;;;17.22;76.57;101512.59;4184695;28;20064;-63
2022/10/18 04:20:46;;;;;;;13.30;5.25;;;;;;;17.25;76.63;101515.22;4178799;28;20041;-63
2022/10/18 04:22:49;;;;;;;11.13;5.00;;;;;;;17.30;76.68;101515.25;4189704;28;20044;-64
2022/10/18 04:24:55;;;;;;;16.48;5.32;;;;;;;17.37;76.37;101515.25;4188365;28;20601;-63
2022/10/18 04:26:58;;;;;;;6.90;4.78;;;;;;;17.39;76.27;101516.16;4186691;28;20135;-63
2022/10/18 04:29:01;;;;;;;10.18;4.70;;;;;;;17.38;76.42;101518.78;4189618;28;20118;-63
2022/10/18 04:31:04;;;;;;;8.85;4.50;;;;;;;17.37;76.25;101501.25;4191468;28;20064;-63
2022/10/18 04:33:08;;;;;;;15.05;5.13;;;;;;;17.39;76.60;101503.00;4185165;28;20037;-63
2022/10/18 04:35:11;;;;;;;8.90;4.97;;;;;;;17.40;76.82;101496.00;4186838;28;20037;-64
2022/10/18 04:37:13;;;;;;;9.40;5.22;;;;;;;17.36;76.97;101497.75;4194666;28;20040;-63
2022/10/18 04:39:16;;;;;;;9.07;4.70;;;;;;;17.39;76.73;101499.50;4193280;28;20502;-63
2022/10/18 04:41:19;;;;;;;9.68;3.97;;;;;;;17.33;76.84;101500.34;4165510;28;20038;-64
2022/10/18 04:43:22;;;;;;;15.02;6.10;;;;;;;17.35;76.85;101498.63;4188551;28;20047;-64
2022/10/18 04:45:25;;;;;;;7.80;4.18;;;;;;;17.39;76.75;101503.00;4196080;28;20024;-64
2022/10/18 04:47:27;;;;;;;9.65;4.55;;;;;;;17.33;77.10;101502.97;4196358;28;20506;-64
2022/10/18 04:49:32;;;;;;;10.70;5.18;;;;;;;17.36;76.91;101502.09;4183627;28;20102;-64
2022/10/18 04:51:35;;;;;;;;;;;;;;;17.26;76.73;101499.47;4190707;28;20566;-63
2022/10/18 04:53:38;;;;;;;12.50;4.65;;;;;;;17.23;76.97;101501.19;4176435;28;20401;-64
2022/10/18 04:55:43;;;;;;;9.07;4.80;;;;;;;17.25;77.39;101499.47;4190226;28;20462;-64
2022/10/18 04:57:46;;;;;;;9.07;5.13;;;;;;;17.27;77.17;101502.97;4192581;28;20044;-64
2022/10/18 04:59:49;;;;;;;9.02;4.78;;;;;;;17.27;77.29;101510.84;4195133;28;20444;-64
2022/10/18 05:01:51;;;;;;;7.38;4.32;;;;;;;17.23;77.18;101507.34;4182537;28;20037;-64
2022/10/18 05:03:55;;;;;;;15.55;4.63;;;;;;;17.21;77.47;101506.44;4186251;28;20387;-64
2022/10/18 05:05:59;;;;;;;11.57;4.90;;;;;;;17.20;77.48;101501.19;4195278;28;20410;-64
2022/10/18 05:08:05;;;;;;;10.80;4.70;;;;;;;17.17;77.68;101499.44;4191707;28;20040;-64
2022/10/18 05:10:09;;;;;;;8.63;4.80;;;;;;;17.13;77.41;101505.56;4188003;28;20037;-64
2022/10/18 05:12:12;;;;;;;9.97;5.13;;;;;;;17.12;77.56;101503.78;4189096;28;20033;-64
2022/10/18 05:14:14;;;;;;;6.10;4.57;;;;;;;17.08;77.73;101508.16;4184250;28;20040;-64
2022/10/18 05:16:17;;;;;;;11.88;5.70;;;;;;;17.02;77.93;101512.50;4190758;28;20072;-64
2022/10/18 05:18:20;;;;;;;13.88;5.88;;;;;;;17.02;78.02;101505.50;4193545;28;20087;-64
2022/10/18 05:20:23;;;;;;;10.40;5.00;;;;;;;17.04;78.27;101505.50;4182288;28;20048;-63
2022/10/18 05:22:28;;;;;;;7.67;5.37;;;;;;;17.02;78.29;101499.38;4182130;28;20544;-64
2022/10/18 05:24:31;;;;;;;10.27;5.18;;;;;;;17.04;78.26;101506.41;4186285;28;20104;-64
2022/10/18 05:26:34;;;;;;;11.25;5.28;;;;;;;17.07;77.82;101501.16;4191185;28;20041;-64
2022/10/18 05:28:37;;;;;;;14.02;5.10;;;;;;;17.07;78.20;101505.53;4191040;28;20516;-63
2022/10/18 05:30:42;;;;;;;14.68;5.55;;;;;;;17.05;78.31;101502.00;4192574;28;20402;-64
2022/10/18 05:32:45;;;;;;;10.95;5.13;;;;;;;17.05;77.99;101495.00;4194617;28;20037;-63
2022/10/18 05:34:48;;;;;;;6.75;4.60;;;;;;;17.00;78.47;101502.00;4184808;28;20494;-64
2022/10/18 05:36:50;;;;;;;12.25;5.28;;;;;;;16.99;78.46;101504.63;4181901;28;20441;-63
2022/10/18 05:38:55;;;;;;;7.82;4.70;;;;;;;17.03;78.64;101509.00;4182552;28;20047;-64
2022/10/18 05:41:04;;;;;;;11.32;4.78;;;;;;;17.00;78.73;101503.75;4188763;28;20040;-64
2022/10/18 05:43:07;;;;;;;14.25;5.57;;;;;;;16.99;78.75;101510.72;4183637;28;20490;-63
2022/10/18 05:45:10;;;;;;;9.07;5.15;;;;;;;16.99;78.38;101508.09;4185813;28;20044;-64
2022/10/18 05:47:13;;;;;;;11.55;6.07;;;;;;;17.03;78.84;101507.25;4183623;28;20041;-64
2022/10/18 05:49:16;;;;;;;12.52;4.88;;;;;;;17.00;78.74;101499.38;4181541;28;20033;-64
2022/10/18 05:51:19;;;;;;;11.52;5.25;;;;;;;17.01;78.86;101510.75;4189974;28;20044;-64
2022/10/18 05:53:22;;;;;;;15.68;7.38;;;;;;;17.13;78.47;101502.03;4194251;28;20048;-64
2022/10/18 05:55:40;;;;;;;9.63;4.78;;;;;;;17.01;78.49;101494.97;4190071;28;20048;-64
2022/10/18 05:57:42;;;;;;;8.98;5.43;;;;;;;16.96;78.80;101502.84;4189955;28;20099;-64
2022/10/18 05:59:45;;;;;;;7.55;4.85;;;;;;;16.94;78.87;101499.34;4180537;28;20449;-64
2022/10/18 06:01:48;;;;;;;11.18;5.00;;;;;;;16.95;78.95;101511.59;4180348;28;20097;-64
2022/10/18 06:03:51;;;;;;;8.57;4.80;;;;;;;16.93;79.05;101514.22;4181368;28;20049;-64
2022/10/18 06:05:59;;;;;;;9.25;4.68;;;;;;;16.94;79.11;101515.09;4180606;28;20071;-64
2022/10/18 06:08:02;;;;;;;12.23;6.03;;;;;;;17.05;78.82;101500.25;4188116;28;20041;-64
2022/10/18 06:10:11;;;;;;;10.18;6.43;;;;;;;17.15;77.60;101484.53;4180336;28;20053;-64
2022/10/18 06:12:15;;;;;;;11.35;5.32;;;;;;;16.97;78.23;101488.84;4180304;28;20099;-63
2022/10/18 06:14:18;;;;;;;10.23;5.30;;;;;;;16.85;78.68;101508.03;4163318;28;20038;-64
2022/10/18 06:16:22;;;;;;;17.00;5.38;;;;;;;16.79;79.73;101504.47;4208041;28;20045;-63
2022/10/18 06:18:30;;;;;;;14.82;6.90;;;;;;;16.92;79.05;101491.47;4191776;28;20558;-63
2022/10/18 06:20:32;;;;;;;8.85;5.28;;;;;;;16.84;79.18;101498.38;4187853;28;20043;-63
2022/10/18 06:22:35;;;;;;;9.90;5.43;;;;;;;16.82;79.70;101491.34;4183169;28;20086;-64
2022/10/18 06:24:38;;;;;;;12.70;5.45;;;;;;;16.75;79.88;101493.97;4163283;28;20049;-64
2022/10/18 06:26:41;;;;;;;10.27;5.85;;;;;;;16.75;79.93;101499.22;4181278;28;20045;-64
2022/10/18 06:28:45;;;;;;;8.43;5.22;;;;;;;16.80;80.17;101495.75;4179975;28;20052;-63
2022/10/18 06:30:48;;;;;;;16.30;5.53;;;;;;;16.79;80.13;101494.84;4193957;28;20044;-63
2022/10/18 06:32:51;;;;;;;11.32;6.68;;;;;;;16.90;79.91;101490.56;4189395;28;20124;-63
2022/10/18 06:34:54;;;;;;;7.85;5.03;;;;;;;16.91;79.89;101496.72;4180889;28;20040;-64
2022/10/18 06:36:57;;;;;;;16.48;5.50;;;;;;;16.93;79.58;101498.44;4181409;28;20045;-64
2022/10/18 06:39:01;;;;;;;11.75;4.95;;;;;;;16.97;79.36;101501.97;4181254;28;20108;-63
2022/10/18 06:41:05;;;;;;;8.30;4.28;;;;;;;16.95;79.52;101505.47;4180875;28;20037;-63
2022/10/18 06:43:08;;;;;;;11.23;5.50;;;;;;;16.75;80.18;101514.97;4189096;28;20127;-63
2022/10/18 06:45:24;;;;;;;8.95;4.45;;;;;;;16.75;80.34;101514.97;4180349;28;20044;-64
2022/10/18 06:47:27;;;;;;;7.63;5.07;;;;;;;16.83;80.14;101516.75;4179745;28;20091;-64
2022/10/18 06:49:30;;;;;;;7.03;4.43;;;;;;;16.87;80.19;101515.91;4181033;28;20407;-64
2022/10/18 06:51:32;;;;;;;8.95;5.38;;;;;;;16.93;80.12;101518.59;4188991;28;20041;-63
2022/10/18 06:53:37;;;;;;;16.15;5.40;;;;;;;16.95;79.79;101526.47;4195238;28;20044;-63
2022/10/18 06:55:50;;;;;;;10.80;5.57;;;;;;;16.87;79.94;101523.78;4197532;28;20090;-63
2022/10/18 06:57:53;;;;;;;5.90;4.18;;;;;;;16.91;80.03;101538.72;4197327;28;20090;-63
2022/10/18 06:59:55;;;;;;;11.93;5.30;;;;;;;16.83;80.14;101540.41;4195961;28;20040;-63
2022/10/18 07:02:00;;;;;;;8.60;4.70;;;;;;;16.86;79.94;101543.91;4180748;28;20079;-63
2022/10/18 07:04:03;;;;;;;11.05;5.47;;;;;;;16.76;80.16;101547.34;4195741;28;20421;-63
2022/10/18 07:06:08;;;;;;;8.20;4.70;;;;;;;16.75;79.89;101553.50;4197320;28;20098;-63
2022/10/18 07:08:11;;;;;;;14.07;5.95;;;;;;;16.73;80.18;101544.69;4197451;28;20032;-63
2022/10/18 07:10:14;;;;;;;11.57;5.65;;;;;;;16.87;79.74;101544.81;4196455;28;20037;-63
2022/10/18 07:12:16;;;;;;;12.57;5.10;;;;;;;16.84;80.00;101558.78;4187555;28;20036;-63
2022/10/18 07:14:19;;;;;;;8.85;5.07;;;;;;;16.72;80.13;101567.47;4183149;28;20068;-63
2022/10/18 07:16:22;;;;;;;15.48;6.28;;;;;;;16.73;80.18;101558.72;4180753;28;20440;-63
2022/10/18 07:18:27;;;;;;;19.35;6.72;;;;;;;16.69;80.27;101575.34;4179304;28;20041;-63
2022/10/18 07:20:30;;;;;;;18.55;6.75;;;;;;;16.67;80.67;101579.66;4179334;28;20045;-63
2022/10/18 07:22:32;;;;;;;21.00;7.93;;;;;;;16.67;80.87;101577.03;4186454;28;20068;-63
2022/10/18 07:24:35;;;;;;;21.60;7.47;;;;;;;16.64;81.11;101577.03;4182173;28;20515;-63
2022/10/18 07:26:38;;;;;;;12.80;6.95;;;;;;;16.69;81.69;101579.69;4179440;28;20045;-63
2022/10/18 07:28:41;;;;;;;18.80;7.45;;;;;;;16.77;81.60;101585.00;4180554;28;20040;-63
2022/10/18 07:30:44;;;;;;;14.93;7.40;;;;;;;16.82;81.75;101591.16;4179128;28;20088;-63
2022/10/18 07:32:47;;;;;;;13.07;7.80;;;;;;;16.88;81.62;101588.59;4187619;28;20032;-63
2022/10/18 07:34:51;;;;;;;15.27;8.18;;;;;;;16.94;81.58;101580.78;4188297;28;20041;-63
2022/10/18 07:36:54;;;;;;;18.33;8.05;;;;;;;16.98;81.54;101579.94;4180514;28;20033;-63
2022/10/18 07:38:57;;;;;;;13.68;8.48;;;;;;;17.02;81.18;101581.69;4180459;28;20047;-63
2022/10/18 07:41:01;;;;;;;12.95;7.53;;;;;;;17.03;81.43;101582.56;4162488;28;20103;-63
2022/10/18 07:43:04;;;;;;;15.07;5.95;;;;;;;17.02;82.03;101586.94;4188542;28;20037;-63
2022/10/18 07:45:11;;;;;;;11.65;6.68;;;;;;;17.05;81.95;101592.19;4182501;28;20045;-63
2022/10/18 07:47:14;;;;;;;9.10;6.20;;;;;;;17.07;82.10;101593.09;4184711;28;20044;-63
2022/10/18 07:49:16;;;;;;;12.90;6.57;;;;;;;17.06;82.13;101599.22;4170764;28;20365;-63
2022/10/18 07:51:21;;;;;;;13.15;7.35;;;;;;;17.07;82.07;101608.88;4187121;28;20033;-63
2022/10/18 07:53:24;;;;;;;16.13;7.45;;;;;;;17.06;81.92;101612.34;4185765;28;20063;-63
2022/10/18 07:55:27;;;;;;;11.23;7.72;;;;;;;17.10;82.45;101610.66;4167206;28;20539;-63
2022/10/18 07:57:30;;;;;;;18.83;8.32;;;;;;;17.13;82.36;101600.16;4189217;28;20037;-63
2022/10/18 07:59:33;;;;;;;14.75;8.02;;;;;;;17.17;82.12;101593.16;4199117;28;20675;-63
2022/10/18 08:01:37;;;;;;;12.93;8.15;;;;;;;17.18;82.45;101598.41;4190632;28;20053;-63
2022/10/18 08:03:41;;;;;;;12.88;8.98;;;;;;;17.22;82.27;101596.69;4199668;28;20040;-63
2022/10/18 08:05:43;;;;;;;14.55;9.50;;;;;;;17.25;82.20;101594.06;4200315;28;20102;-62
2022/10/18 08:07:48;;;;;;;19.10;9.15;;;;;;;17.28;81.89;101588.81;4198861;28;20049;-63
2022/10/18 08:09:50;;;;;;;11.20;8.30;;;;;;;17.28;82.28;101599.34;4198252;28;20102;-63
2022/10/18 08:11:53;;;;;;;10.02;7.70;;;;;;;17.28;82.20;101607.22;4191597;28;20044;-62
2022/10/18 08:13:56;;;;;;;14.55;8.82;;;;;;;17.32;82.50;101613.34;4192301;28;20033;-63
2022/10/18 08:16:00;;;;;;;10.07;7.82;;;;;;;17.35;82.33;101606.38;4193718;28;20040;-63
2022/10/18 08:18:03;;;;;;;19.25;9.05;;;;;;;17.39;82.42;101602.91;4191508;28;20051;-63
2022/10/18 08:20:06;;;;;;;14.88;7.82;;;;;;;17.44;82.67;101610.81;4183243;28;20045;-63
2022/10/18 08:22:28;;;;;;;10.80;7.10;;;;;;;17.40;82.63;101609.91;4183327;28;20110;-63
2022/10/18 08:24:33;;;;;;;11.88;7.00;;;;;;;17.44;82.83;101601.16;4182851;28;20059;-63
2022/10/18 08:26:35;;;;;;;9.52;7.22;;;;;;;17.45;82.51;101608.19;4181781;28;20041;-63
2022/10/18 08:28:39;;;;;;;15.32;8.82;;;;;;;17.48;82.54;101606.41;4191325;28;20437;-63
2022/10/18 08:30:45;;;;;;;12.85;8.05;;;;;;;17.38;83.33;101624.78;4183184;28;20043;-63
2022/10/18 08:32:48;;;;;;;15.57;9.50;;;;;;;17.40;83.19;101617.78;4183110;28;20072;-64
2022/10/18 08:34:51;;;;;;;15.90;10.95;;;;;;;17.48;83.14;101628.34;4182789;28;20094;-64
2022/10/18 08:36:53;;;;;;;16.13;9.20;;;;;;;17.56;82.98;101624.00;4185105;28;20128;-64
2022/10/18 08:38:56;;;;;;;13.93;8.02;;;;;;;17.58;83.00;101624.00;4190635;28;20044;-64
2022/10/18 08:41:02;;;;;;;10.73;8.15;;;;;;;17.61;83.09;101624.03;4189737;28;20036;-64
2022/10/18 08:43:10;;;;;;;12.75;7.72;;;;;;;17.64;83.34;101624.03;4182801;28;20045;-64
2022/10/18 08:45:13;;;;;;;10.73;7.72;;;;;;;17.68;82.95;101625.78;4164948;28;20518;-64
2022/10/18 08:47:39;;;;;;;12.02;8.88;;;;;;;17.73;82.88;101624.06;4192555;28;20063;-64
2022/10/18 08:49:46;;;;;;;16.85;8.30;;;;;;;17.79;82.09;101620.56;4192056;28;20132;-64
2022/10/18 08:51:51;;;;;;;10.55;6.75;;;;;;;17.82;82.50;101624.97;4182773;28;20064;-64
2022/10/18 08:54:02;;;;;;;15.88;8.65;;;;;;;17.86;82.70;101624.97;4181140;28;20573;-64
2022/10/18 08:56:13;;;;;;;12.07;7.75;;;;;;;17.89;82.19;101611.84;4181405;28;20045;-64
2022/10/18 08:58:20;;;;;;;13.88;8.68;;;;;;;17.94;82.44;101617.13;4193429;28;20040;-64
2022/10/18 09:00:25;;;;;;;16.50;9.20;;;;;;;17.97;82.19;101625.03;4186361;28;20064;-64
2022/10/18 09:02:42;;;;;;;12.18;8.18;;;;;;;18.00;81.47;101627.66;4182557;28;20132;-65
2022/10/18 09:04:52;;;;;;;12.10;7.80;;;;;;;17.96;81.80;101621.53;4182272;28;20049;-64
2022/10/18 09:07:11;;;;;;;12.02;7.60;;;;;;;17.96;82.14;101632.06;4175048;28;20547;-64
2022/10/18 09:09:28;;;;;;;14.50;9.30;;;;;;;17.94;82.62;101630.28;4181240;28;20055;-64
2022/10/18 09:11:46;;;;;;;14.95;9.77;;;;;;;17.88;82.41;101632.88;4182524;28;20033;-64
2022/10/18 09:14:02;;;;;;;11.68;8.63;;;;;;;17.91;82.62;101622.38;4182086;28;20037;-64
2022/10/18 09:16:07;;;;;;;11.60;8.25;;;;;;;18.00;82.73;101611.00;4184389;28;20061;-64
2022/10/18 09:18:22;;;;;;;12.50;8.63;;;;;;;18.11;82.14;101614.53;4186297;28;20048;-64
2022/10/18 09:20:28;;;;;;;12.15;7.78;;;;;;;18.20;82.45;101617.19;4181323;28;20128;-64
2022/10/18 09:22:42;;;;;;;16.52;9.48;;;;;;;18.31;82.17;101617.19;4182284;28;20048;-64
2022/10/18 09:24:48;;;;;;;17.58;10.80;;;;;;;18.43;81.21;101621.59;4180830;28;20040;-64
2022/10/18 09:26:57;;;;;;;12.30;7.93;;;;;;;18.45;81.58;101625.09;4189671;28;20402;-64
2022/10/18 09:29:13;;;;;;;14.32;8.10;;;;;;;18.44;81.79;101620.69;4190422;28;20047;-65
2022/10/18 09:31:21;;;;;;;16.98;10.07;;;;;;;18.34;81.11;101614.56;4182249;28;20076;-64
2022/10/18 09:33:45;;;;;;;13.57;9.52;;;;;;;18.43;80.89;101622.47;4181871;28;20510;-64
2022/10/18 09:35:53;;;;;;;11.88;8.07;;;;;;;18.45;81.47;101625.09;4180699;28;20087;-64
2022/10/18 09:38:05;;;;;;;9.57;7.70;;;;;;;18.52;81.03;101628.63;4173524;28;20516;-64
2022/10/18 09:40:17;;;;;;;11.13;7.40;;;;;;;18.54;80.97;101629.47;4198773;28;20498;-64